createdAt,value
2022-12-03T07:03:48.284Z,31.05
2022-12-03T07:06:20.485Z,31.92
2022-12-03T07:08:52.786Z,31.25
2022-12-03T07:11:40.123Z,32.97
2022-12-03T07:14:12.214Z,31.60
2022-12-03T07:16:44.388Z,34.05
2022-12-03T07:19:17.345Z,32.00
2022-12-03T07:21:49.403Z,32.97
2022-12-03T07:24:21.356Z,29.75
2022-12-03T07:26:53.384Z,30.65
2022-12-03T07:29:25.560Z,31.85
2022-12-03T07:31:57.697Z,32.72
2022-12-03T07:34:29.992Z,32.55
2022-12-03T07:37:02.075Z,30.55
2022-12-03T07:39:34.138Z,30.60
2022-12-03T07:42:09.412Z,28.47
2022-12-03T07:44:41.559Z,31.65
2022-12-03T07:47:13.615Z,29.52
2022-12-03T07:49:45.719Z,33.42
2022-12-03T07:52:17.838Z,29.30
2022-12-03T07:54:49.869Z,31.45
2022-12-03T07:57:22.156Z,28.63
2022-12-03T07:59:54.117Z,29.25
2022-12-03T08:02:26.258Z,29.60
2022-12-03T08:04:58.528Z,26.60
2022-12-03T08:07:30.582Z,29.42
2022-12-03T08:10:03.109Z,30.05
2022-12-03T08:12:41.050Z,29.05
2022-12-03T08:15:20.748Z,26.38
2022-12-03T08:17:58.827Z,27.88
2022-12-03T08:20:34.940Z,29.77
2022-12-03T08:23:16.617Z,28.50
2022-12-03T08:25:51.545Z,27.65
2022-12-03T08:28:28.447Z,29.63
2022-12-03T08:31:07.530Z,28.95
2022-12-03T08:33:42.147Z,28.70
2022-12-03T08:36:29.328Z,27.80
2022-12-03T08:39:33.841Z,28.35
2022-12-03T08:45:40.485Z,27.95
2022-12-03T08:48:18.395Z,27.58
2022-12-03T08:50:50.782Z,27.85
2022-12-03T08:53:35.787Z,27.58
2022-12-03T08:56:24.673Z,25.40
2022-12-03T08:59:24.131Z,26.45
2022-12-03T09:01:58.250Z,26.50
2022-12-03T09:04:38.618Z,26.23
2022-12-03T09:07:11.286Z,23.30
2022-12-03T09:09:43.327Z,16.10
2022-12-03T09:12:15.346Z,21.83
2022-12-03T09:14:47.509Z,25.70
2022-12-03T09:17:21.533Z,24.83
2022-12-03T09:19:53.593Z,24.25
2022-12-03T09:22:25.717Z,22.40
2022-12-03T14:55:07.980Z,28.00
2022-12-03T14:57:42.753Z,29.60
2022-12-03T15:00:15.322Z,29.47
2022-12-03T15:02:48.211Z,27.70
2022-12-03T15:05:28.045Z,27.83
2022-12-03T15:08:00.838Z,27.58
2022-12-03T15:10:33.887Z,26.63
2022-12-03T15:13:05.980Z,26.02
2022-12-03T15:15:38.234Z,26.02
2022-12-03T15:18:10.283Z,26.20
2022-12-03T15:20:42.322Z,28.52
2022-12-03T15:23:14.927Z,27.67
2022-12-03T15:25:47.401Z,28.43
2022-12-03T15:28:19.754Z,29.77
2022-12-03T15:30:52.186Z,29.97
2022-12-03T15:33:24.343Z,29.63
2022-12-03T15:35:56.375Z,31.08
2022-12-03T15:38:28.484Z,29.65
2022-12-03T15:41:20.578Z,27.90
2022-12-03T15:43:52.901Z,27.75
2022-12-03T15:46:26.177Z,27.88
2022-12-03T15:48:58.546Z,28.92
2022-12-03T15:51:30.864Z,28.20
2022-12-03T15:54:03.203Z,27.25
2022-12-03T15:56:37.833Z,28.55
2022-12-03T15:59:09.927Z,28.13
2022-12-03T16:01:41.941Z,30.20
2022-12-03T16:04:14.019Z,32.22
2022-12-03T16:06:46.070Z,28.90
2022-12-03T16:09:22.339Z,44.90
2022-12-03T16:11:57.637Z,29.98
2022-12-03T16:14:29.679Z,36.58
2022-12-03T16:17:02.460Z,36.55
2022-12-03T16:19:35.266Z,42.08
2022-12-03T16:22:07.693Z,36.80
2022-12-03T16:24:39.795Z,47.92
2022-12-03T16:27:11.926Z,45.80
2022-12-03T16:29:43.939Z,52.90
2022-12-03T16:32:16.511Z,118.25
2022-12-03T16:34:49.550Z,44.72
2022-12-03T16:37:22.286Z,52.20
2022-12-03T16:39:56.171Z,37.42
2022-12-03T16:42:28.520Z,44.58
2022-12-03T16:45:03.518Z,37.65
2022-12-03T16:47:36.093Z,36.80
2022-12-03T16:50:12.980Z,39.67
2022-12-03T16:52:50.117Z,38.95
2022-12-03T16:55:22.389Z,50.40
2022-12-03T16:57:54.466Z,42.33
2022-12-03T17:00:26.684Z,44.60
2022-12-03T17:02:58.838Z,45.05
2022-12-03T17:05:30.968Z,41.88
2022-12-03T17:08:03.185Z,42.35
2022-12-03T17:10:35.521Z,46.50
2022-12-03T17:13:09.806Z,45.05
2022-12-03T17:15:42.501Z,43.47
2022-12-03T17:18:14.691Z,48.95
2022-12-03T17:20:47.206Z,45.58
2022-12-03T17:23:19.196Z,46.65
2022-12-03T17:25:51.384Z,56.28
2022-12-03T17:28:23.658Z,51.67
2022-12-03T17:30:55.832Z,51.65
2022-12-03T17:33:30.771Z,47.72
2022-12-03T17:36:02.947Z,44.85
2022-12-03T17:38:39.023Z,48.70
2022-12-03T17:41:11.826Z,50.75
2022-12-03T17:43:43.805Z,49.38
2022-12-03T17:46:15.890Z,48.83
2022-12-03T17:48:48.025Z,52.67
2022-12-03T17:51:21.206Z,44.10
2022-12-03T17:53:53.192Z,55.05
2022-12-03T17:56:25.718Z,49.58
2022-12-03T17:58:58.487Z,44.50
2022-12-03T18:01:30.879Z,52.10
2022-12-03T18:04:03.132Z,49.72
2022-12-03T18:06:35.349Z,55.95
2022-12-03T18:09:07.725Z,51.63
2022-12-03T18:11:40.604Z,56.60
2022-12-03T18:14:13.547Z,58.17
2022-12-03T18:16:45.588Z,50.03
2022-12-03T18:19:17.720Z,58.90
2022-12-03T18:21:49.715Z,53.17
2022-12-03T18:24:22.157Z,52.78
2022-12-03T18:26:54.169Z,52.17
2022-12-03T18:29:26.209Z,70.22
2022-12-03T18:31:58.333Z,66.97
2022-12-03T18:34:30.367Z,54.08
2022-12-03T18:37:02.487Z,95.68
2022-12-03T18:39:36.894Z,107.53
2022-12-03T18:42:22.426Z,72.53
2022-12-03T18:44:56.371Z,74.15
2022-12-03T18:47:29.472Z,71.75
2022-12-03T18:50:01.907Z,56.30
2022-12-03T18:52:34.665Z,52.08
2022-12-03T18:55:07.820Z,58.70
2022-12-03T18:57:39.936Z,61.88
2022-12-03T19:00:13.985Z,62.05
2022-12-03T19:03:02.485Z,63.63
2022-12-03T19:05:36.286Z,53.13
2022-12-03T19:08:14.364Z,46.30
2022-12-03T19:10:56.260Z,50.10
2022-12-03T19:13:28.598Z,45.92
2022-12-03T19:16:05.980Z,47.63
2022-12-03T19:18:38.651Z,46.45
2022-12-03T19:21:13.770Z,42.83
2022-12-03T19:24:09.888Z,46.15
2022-12-03T19:26:37.865Z,42.60
2022-12-03T19:29:10.773Z,47.60
2022-12-03T19:31:43.023Z,47.67
2022-12-03T19:34:15.525Z,43.38
2022-12-03T19:36:48.114Z,48.42
2022-12-03T19:39:20.880Z,45.27
2022-12-03T19:41:53.142Z,49.20
2022-12-03T19:44:25.473Z,48.35
2022-12-03T19:46:58.018Z,50.47
2022-12-03T19:49:30.370Z,45.40
2022-12-03T19:52:02.620Z,40.67
2022-12-03T19:54:34.847Z,44.85
2022-12-03T19:57:07.441Z,45.75
2022-12-03T19:59:39.963Z,43.60
2022-12-03T20:02:12.821Z,45.90
2022-12-03T20:04:44.857Z,39.60
2022-12-03T20:07:16.902Z,42.95
2022-12-03T20:09:51.840Z,43.10
2022-12-03T20:12:24.086Z,42.90
2022-12-03T20:14:56.702Z,45.63
2022-12-03T20:17:28.801Z,48.17
2022-12-03T20:20:01.346Z,49.60
2022-12-03T20:22:33.416Z,46.40
2022-12-03T20:25:06.294Z,41.50
2022-12-03T20:27:38.422Z,54.72
2022-12-03T20:30:11.597Z,45.25
2022-12-03T20:32:45.687Z,44.08
2022-12-03T20:35:17.835Z,47.97
2022-12-03T20:37:50.165Z,49.90
2022-12-03T20:40:22.574Z,43.97
2022-12-03T20:42:55.110Z,45.03
2022-12-03T20:45:27.430Z,45.38
2022-12-03T20:47:59.680Z,42.53
2022-12-03T20:50:31.862Z,45.60
2022-12-03T20:53:23.887Z,43.25
2022-12-03T20:56:00.050Z,45.60
2022-12-03T20:58:32.977Z,43.67
2022-12-03T21:01:15.331Z,46.63
2022-12-03T21:03:49.054Z,48.17
2022-12-03T21:06:22.929Z,46.17
2022-12-03T21:08:57.533Z,48.08
2022-12-03T21:11:31.327Z,40.78
2022-12-03T21:14:04.398Z,44.13
2022-12-03T21:17:07.325Z,45.60
2022-12-03T21:19:31.409Z,43.63
2022-12-03T21:22:03.976Z,42.58
2022-12-03T21:24:36.281Z,45.80
2022-12-03T21:27:08.435Z,45.35
2022-12-03T21:29:40.554Z,39.17
2022-12-03T21:32:13.653Z,45.47
2022-12-03T21:34:45.678Z,43.08
2022-12-03T21:37:17.845Z,48.67
